createdAt,value
2023-03-01T00:01:32.632Z,26.50
2023-03-01T00:04:00.513Z,26.30
2023-03-01T00:06:28.807Z,26.50
2023-03-01T00:08:56.759Z,26.20
2023-03-01T00:11:26.465Z,25.80
2023-03-01T00:13:57.131Z,25.20
2023-03-01T00:16:34.787Z,25.00
2023-03-01T00:19:02.033Z,26.70
2023-03-01T00:21:29.761Z,27.20
2023-03-01T00:23:57.884Z,27.50
2023-03-01T00:26:26.407Z,27.60
2023-03-01T00:28:54.177Z,28.10
2023-03-01T00:31:24.423Z,28.50
2023-03-01T00:33:58.108Z,28.50
2023-03-01T00:36:27.417Z,28.10
2023-03-01T00:38:54.511Z,28.80
2023-03-01T00:41:23.721Z,28.70
2023-03-01T00:43:51.635Z,28.90
2023-03-01T00:46:22.317Z,28.80
2023-03-01T00:48:49.435Z,28.90
2023-03-01T00:51:22.933Z,28.30
2023-03-01T00:53:56.007Z,28.00
2023-03-01T00:56:23.385Z,27.80
2023-03-01T00:58:50.634Z,27.80
2023-03-01T01:01:24.300Z,27.40
2023-03-01T01:03:54.082Z,26.90
2023-03-01T01:06:27.011Z,26.20
2023-03-01T01:08:55.641Z,26.30
2023-03-01T01:11:24.434Z,26.90
2023-03-01T01:13:51.991Z,27.20
2023-03-01T01:16:20.398Z,27.40
2023-03-01T01:18:47.897Z,27.00
2023-03-01T01:21:17.599Z,27.10
2023-03-01T01:23:46.297Z,26.50
2023-03-01T01:26:16.783Z,26.30
2023-03-01T01:28:43.920Z,26.00
2023-03-01T01:31:11.385Z,25.80
2023-03-01T01:33:38.664Z,25.40
2023-03-01T01:36:07.311Z,25.30
2023-03-01T01:38:35.373Z,24.00
2023-03-01T01:41:02.476Z,22.30
2023-03-01T01:43:34.015Z,21.70
2023-03-01T01:46:05.010Z,21.40
2023-03-01T01:48:43.135Z,20.90
2023-03-01T01:51:18.867Z,20.30
2023-03-01T01:53:49.079Z,20.10
2023-03-01T01:56:18.641Z,20.10
2023-03-01T01:58:48.571Z,19.80
2023-03-01T02:01:15.736Z,20.40
2023-03-01T02:03:45.970Z,21.00
2023-03-01T02:06:22.581Z,21.90
2023-03-01T02:08:53.750Z,22.00
2023-03-01T02:11:21.662Z,22.00
2023-03-01T02:13:49.277Z,22.00
2023-03-01T02:16:17.704Z,22.50
2023-03-01T02:18:45.765Z,23.90
2023-03-01T02:21:21.618Z,23.50
2023-03-01T02:23:49.213Z,24.10
2023-03-01T02:26:39.760Z,24.00
2023-03-01T02:29:07.408Z,24.30
2023-03-01T02:31:43.812Z,24.20
2023-03-01T02:34:15.412Z,24.30
2023-03-01T02:36:48.733Z,25.40
2023-03-01T02:39:28.038Z,26.50
2023-03-01T02:41:57.301Z,26.10
2023-03-01T02:44:24.816Z,25.60
2023-03-01T02:46:54.188Z,25.10
2023-03-01T02:49:24.600Z,25.10
2023-03-01T02:52:19.156Z,24.60
2023-03-01T02:55:14.649Z,25.30
2023-03-01T02:57:44.747Z,25.00
2023-03-01T03:00:20.696Z,25.90
2023-03-01T03:02:50.167Z,26.40
2023-03-01T03:05:20.912Z,27.00
2023-03-01T03:07:50.155Z,26.20
2023-03-01T03:10:24.347Z,25.10
2023-03-01T03:12:53.458Z,24.20
2023-03-01T03:15:21.668Z,24.20
2023-03-01T03:17:48.809Z,24.50
2023-03-01T03:20:20.322Z,24.50
2023-03-01T03:22:50.010Z,25.20
2023-03-01T03:25:18.445Z,24.90
2023-03-01T03:27:47.114Z,25.10
2023-03-01T03:30:18.069Z,25.60
2023-03-01T03:32:56.014Z,24.90
2023-03-01T03:35:32.183Z,24.50
2023-03-01T03:38:04.326Z,24.60
2023-03-01T03:40:46.657Z,23.70
2023-03-01T03:43:19.676Z,23.00
2023-03-01T03:45:48.563Z,23.00
2023-03-01T03:48:16.906Z,23.40
2023-03-01T03:50:50.294Z,23.70
2023-03-01T03:53:17.877Z,24.60
2023-03-01T03:55:45.609Z,25.10
2023-03-01T03:58:12.995Z,25.50
2023-03-01T04:00:43.118Z,25.40
2023-03-01T04:03:11.358Z,25.10
2023-03-01T04:05:40.825Z,25.30
2023-03-01T04:08:09.304Z,25.50
2023-03-01T04:10:38.354Z,25.60
2023-03-01T04:13:07.369Z,26.00
2023-03-01T04:15:35.264Z,25.60
2023-03-01T04:18:03.177Z,25.70
2023-03-01T04:20:34.672Z,25.90
2023-03-01T04:23:17.261Z,25.00
2023-03-01T04:25:59.752Z,24.40
2023-03-01T04:28:28.213Z,24.30
2023-03-01T04:30:57.893Z,25.20
2023-03-01T04:33:26.121Z,25.30
2023-03-01T04:35:54.034Z,25.00
2023-03-01T04:38:22.414Z,24.70
2023-03-01T04:40:49.804Z,24.30
2023-03-01T04:43:16.942Z,25.30
2023-03-01T04:45:44.282Z,25.70
2023-03-01T04:48:11.388Z,25.80
2023-03-01T04:50:38.752Z,26.30
2023-03-01T04:53:05.861Z,27.20
2023-03-01T04:55:32.876Z,26.70
2023-03-01T04:58:00.031Z,26.10
2023-03-01T05:00:27.216Z,25.40
2023-03-01T05:03:00.668Z,24.70
2023-03-01T05:05:29.041Z,24.80
2023-03-01T05:07:58.591Z,25.60
2023-03-01T05:10:27.477Z,26.20
2023-03-01T05:12:55.298Z,25.80
2023-03-01T05:15:31.489Z,25.70
2023-03-01T05:18:00.323Z,25.40
2023-03-01T05:20:31.525Z,24.80
2023-03-01T05:23:01.000Z,24.00
2023-03-01T05:25:34.242Z,23.80
2023-03-01T05:28:05.544Z,23.40
2023-03-01T05:30:34.705Z,23.80
2023-03-01T05:33:02.388Z,24.60
2023-03-01T05:35:30.797Z,25.30
2023-03-01T05:37:58.016Z,26.00
2023-03-01T05:40:25.633Z,26.30
2023-03-01T05:42:57.994Z,26.20
2023-03-01T05:45:28.235Z,26.00
2023-03-01T05:47:56.218Z,26.20
2023-03-01T05:50:26.461Z,25.90
2023-03-01T05:53:06.807Z,25.60
2023-03-01T05:55:34.157Z,25.90
2023-03-01T05:58:02.959Z,25.70
2023-03-01T06:00:32.153Z,25.50
2023-03-01T06:03:00.435Z,25.40
2023-03-01T06:05:28.986Z,24.70
2023-03-01T06:07:56.418Z,25.20
2023-03-01T06:10:24.074Z,24.90
2023-03-01T06:12:52.152Z,24.70
2023-03-01T06:15:19.330Z,24.50
2023-03-01T06:17:47.587Z,24.00
2023-03-01T06:20:17.649Z,23.80
2023-03-01T06:22:45.946Z,23.60
2023-03-01T06:25:14.659Z,23.20
2023-03-01T06:27:42.294Z,23.20
2023-03-01T06:30:11.864Z,23.50
2023-03-01T06:32:43.122Z,23.50
2023-03-01T06:35:15.284Z,23.70
2023-03-01T06:37:42.685Z,23.70
2023-03-01T06:40:15.133Z,24.10
2023-03-01T06:42:44.460Z,24.60
2023-03-01T06:45:12.645Z,25.10
2023-03-01T06:47:40.008Z,24.50
2023-03-01T06:50:07.699Z,24.70
2023-03-01T06:52:35.854Z,25.10
2023-03-01T06:55:03.156Z,25.60
2023-03-01T06:57:32.472Z,25.30
2023-03-01T06:59:59.561Z,24.80
2023-03-01T07:02:26.801Z,24.30
2023-03-01T07:04:54.168Z,24.00
2023-03-01T07:07:23.829Z,23.90
2023-03-01T07:09:51.036Z,23.50
2023-03-01T07:12:18.102Z,23.60
2023-03-01T07:14:45.758Z,24.20
2023-03-01T07:17:13.020Z,24.90
2023-03-01T07:19:40.183Z,25.40
2023-03-01T07:22:08.982Z,26.20
2023-03-01T07:24:36.146Z,27.00
2023-03-01T07:27:03.912Z,28.00
2023-03-01T07:29:31.280Z,27.80
2023-03-01T07:31:58.441Z,27.80
2023-03-01T07:34:25.739Z,28.20
2023-03-01T07:36:53.652Z,28.10
2023-03-01T07:39:21.003Z,27.80
2023-03-01T07:41:48.214Z,28.20
2023-03-01T07:44:18.451Z,28.70
2023-03-01T07:46:45.934Z,28.60
2023-03-01T07:49:12.993Z,28.90
2023-03-01T07:51:40.255Z,29.60
2023-03-01T07:54:07.513Z,29.70
2023-03-01T07:56:34.987Z,29.80
2023-03-01T07:59:03.207Z,30.00
2023-03-01T08:01:30.395Z,30.00
2023-03-01T08:03:57.458Z,30.20
2023-03-01T08:06:24.872Z,30.40
2023-03-01T08:08:51.971Z,30.00
2023-03-01T08:11:18.993Z,30.90
2023-03-01T08:13:51.370Z,30.80
2023-03-01T08:16:18.919Z,30.70
2023-03-01T08:18:46.020Z,30.00
2023-03-01T08:21:16.332Z,30.00
2023-03-01T08:23:44.245Z,29.80
2023-03-01T08:26:14.669Z,30.40
2023-03-01T08:28:42.397Z,31.20
2023-03-01T08:31:18.468Z,32.20
2023-03-01T08:33:51.839Z,32.60
2023-03-01T08:36:19.424Z,32.70
2023-03-01T08:38:46.952Z,32.40
2023-03-01T08:41:14.637Z,32.50
2023-03-01T08:43:42.246Z,33.60
2023-03-01T08:46:09.674Z,34.50
2023-03-01T08:48:36.859Z,34.80
2023-03-01T08:51:19.122Z,35.00
2023-03-01T08:53:47.245Z,35.70
2023-03-01T08:56:14.625Z,36.30
2023-03-01T08:58:45.586Z,35.60
2023-03-01T09:01:13.492Z,35.20
2023-03-01T09:03:40.648Z,36.10
2023-03-01T09:06:08.801Z,36.60
2023-03-01T09:08:40.529Z,36.80
2023-03-01T09:11:09.650Z,35.90
2023-03-01T09:13:37.100Z,35.20
2023-03-01T09:16:06.419Z,35.30
2023-03-01T09:18:34.828Z,35.50
2023-03-01T09:21:39.768Z,36.10
2023-03-01T09:24:14.550Z,36.60
2023-03-01T09:26:41.870Z,37.60
2023-03-01T09:29:11.034Z,37.30
2023-03-01T09:31:39.597Z,37.60
2023-03-01T09:34:07.038Z,38.10
2023-03-01T09:36:34.645Z,37.40
2023-03-01T09:39:03.359Z,36.90
2023-03-01T09:41:47.556Z,36.60
2023-03-01T09:44:46.654Z,37.20
2023-03-01T09:47:19.323Z,37.40
2023-03-01T09:50:08.653Z,36.50
2023-03-01T09:52:44.606Z,36.10
2023-03-01T09:55:27.203Z,35.20
2023-03-01T09:58:18.906Z,35.00
2023-03-01T10:00:50.540Z,36.20
2023-03-01T10:03:39.807Z,35.80
2023-03-01T10:06:27.571Z,37.10
2023-03-01T10:09:05.234Z,38.20
2023-03-01T10:11:37.291Z,37.50
2023-03-01T10:14:41.955Z,37.40
2023-03-01T10:17:21.602Z,37.10
2023-03-01T10:19:48.715Z,37.10
2023-03-01T10:22:24.853Z,38.30
2023-03-01T10:24:54.228Z,38.10
2023-03-01T10:27:44.504Z,38.10
2023-03-01T10:30:23.396Z,37.30
2023-03-01T10:32:53.586Z,37.10
2023-03-01T10:35:24.284Z,36.30
2023-03-01T10:38:12.289Z,37.70
2023-03-01T10:40:58.976Z,37.60
2023-03-01T10:43:29.200Z,38.70
2023-03-01T10:45:56.324Z,39.70
2023-03-01T10:48:29.408Z,40.70
2023-03-01T10:50:59.437Z,41.50
2023-03-01T10:53:38.949Z,41.60
2023-03-01T10:56:11.874Z,42.60
2023-03-01T10:58:57.315Z,43.10
2023-03-01T11:01:24.330Z,42.60
2023-03-01T11:04:07.106Z,43.00
2023-03-01T11:06:35.450Z,43.60
2023-03-01T11:09:16.984Z,44.00
2023-03-01T11:11:44.175Z,44.00
2023-03-01T11:14:27.316Z,44.30
2023-03-01T11:17:20.750Z,44.70
2023-03-01T11:20:16.195Z,44.80
2023-03-01T11:22:53.661Z,45.20
2023-03-01T11:25:25.473Z,44.80
2023-03-01T11:27:54.480Z,44.80
2023-03-01T11:30:27.311Z,43.80
2023-03-01T11:33:09.672Z,43.10
2023-03-01T11:35:49.147Z,42.30
2023-03-01T11:38:27.515Z,42.70
2023-03-01T11:41:00.481Z,42.20
2023-03-01T11:43:35.506Z,42.70
2023-03-01T11:46:35.468Z,43.30
2023-03-01T11:49:26.818Z,42.20
2023-03-01T11:52:05.700Z,41.10
2023-03-01T11:54:51.270Z,41.10
2023-03-01T11:57:44.086Z,41.20
2023-03-01T12:00:20.564Z,41.80
2023-03-01T12:03:15.165Z,42.60
2023-03-01T12:05:55.465Z,43.20
2023-03-01T12:08:32.076Z,43.50
2023-03-01T12:11:08.417Z,43.80
2023-03-01T12:13:39.476Z,43.40
2023-03-01T12:16:38.543Z,43.20
2023-03-01T12:19:28.157Z,42.50
2023-03-01T12:22:28.356Z,40.60
2023-03-01T12:25:01.605Z,40.40
2023-03-01T12:27:44.859Z,40.20
2023-03-01T12:30:20.897Z,40.20
2023-03-01T12:32:57.219Z,40.00
2023-03-01T12:36:02.420Z,40.00
2023-03-01T12:38:51.870Z,40.50
2023-03-01T12:41:23.276Z,41.00
2023-03-01T12:43:56.517Z,41.80
2023-03-01T12:46:49.086Z,42.50
2023-03-01T12:49:21.553Z,42.70
2023-03-01T12:52:14.659Z,42.70
2023-03-01T12:54:42.606Z,43.20
2023-03-01T12:57:30.396Z,43.30
2023-03-01T13:00:24.658Z,43.00
2023-03-01T13:03:03.720Z,43.30
2023-03-01T13:05:53.910Z,43.00
2023-03-01T13:08:25.707Z,43.00
2023-03-01T13:11:01.638Z,43.00
2023-03-01T13:13:29.968Z,43.20
2023-03-01T13:15:58.696Z,43.00
2023-03-01T13:18:28.622Z,43.50
2023-03-01T13:20:58.644Z,43.20
2023-03-01T13:23:28.033Z,44.00
2023-03-01T13:26:17.958Z,44.00
2023-03-01T13:28:50.706Z,43.40
2023-03-01T13:31:21.246Z,43.80
2023-03-01T13:33:50.754Z,43.90
2023-03-01T13:36:30.464Z,44.00
2023-03-01T13:39:00.473Z,43.80
2023-03-01T13:41:42.676Z,44.00
2023-03-01T13:44:37.361Z,43.40
2023-03-01T13:47:07.766Z,43.30
2023-03-01T13:49:47.594Z,43.30
2023-03-01T13:52:40.801Z,43.10
2023-03-01T13:55:22.924Z,43.50
2023-03-01T13:57:56.763Z,43.20
2023-03-01T14:00:40.929Z,43.40
2023-03-01T14:03:20.614Z,43.50
2023-03-01T14:06:15.686Z,43.50
2023-03-01T14:08:46.870Z,43.70
2023-03-01T14:11:37.363Z,43.60
2023-03-01T14:14:30.806Z,43.50
2023-03-01T14:17:09.660Z,43.30
2023-03-01T14:19:36.995Z,43.10
2023-03-01T14:22:26.463Z,42.70
2023-03-01T14:25:18.568Z,42.70
2023-03-01T14:27:46.474Z,42.70
2023-03-01T14:30:20.545Z,42.70
2023-03-01T14:33:28.547Z,42.50
2023-03-01T14:36:02.408Z,42.40
2023-03-01T14:38:36.545Z,42.50
2023-03-01T14:41:16.619Z,42.70
2023-03-01T14:43:51.082Z,42.80
2023-03-01T14:46:24.912Z,42.80
2023-03-01T14:49:02.704Z,42.90
2023-03-01T14:51:30.326Z,42.90
2023-03-01T14:53:58.127Z,42.70
2023-03-01T14:56:25.198Z,42.30
2023-03-01T14:59:00.478Z,42.40
2023-03-01T15:01:28.836Z,42.50
2023-03-01T15:03:56.452Z,42.30
2023-03-01T15:06:26.428Z,42.20
2023-03-01T15:08:55.582Z,42.00
2023-03-01T15:11:26.028Z,41.90
2023-03-01T15:13:53.926Z,42.30
2023-03-01T15:16:29.458Z,42.00
2023-03-01T15:19:07.200Z,42.00
2023-03-01T15:21:37.353Z,41.70
2023-03-01T15:24:13.162Z,41.50
2023-03-01T15:26:46.809Z,41.30
2023-03-01T15:29:22.781Z,40.90
2023-03-01T15:32:04.829Z,40.90
2023-03-01T15:34:40.116Z,40.70
2023-03-01T15:37:28.555Z,40.70
2023-03-01T15:39:57.454Z,40.50
2023-03-01T15:42:30.500Z,40.30
2023-03-01T15:45:24.813Z,39.80
2023-03-01T15:47:54.776Z,39.20
2023-03-01T15:50:41.176Z,38.40
2023-03-01T15:53:13.635Z,37.70
2023-03-01T15:55:40.814Z,36.90
2023-03-01T15:58:15.209Z,36.30
2023-03-01T16:00:59.068Z,36.30
2023-03-01T16:03:27.507Z,36.20
2023-03-01T16:05:54.916Z,35.80
2023-03-01T16:08:21.968Z,35.50
2023-03-01T16:10:52.409Z,35.30
2023-03-01T16:13:20.488Z,35.20
2023-03-01T16:15:47.928Z,34.80
2023-03-01T16:18:15.508Z,34.80
2023-03-01T16:20:42.903Z,34.50
2023-03-01T16:23:12.624Z,34.40
2023-03-01T16:25:39.948Z,34.20
2023-03-01T16:28:10.449Z,33.90
2023-03-01T16:30:40.546Z,33.80
2023-03-01T16:33:23.989Z,33.70
2023-03-01T16:35:52.545Z,33.60
2023-03-01T16:38:19.643Z,33.40
2023-03-01T16:40:50.801Z,33.40
2023-03-01T16:43:18.209Z,33.40
2023-03-01T16:45:48.210Z,33.50
2023-03-01T16:48:15.885Z,33.30
2023-03-01T16:50:43.306Z,33.10
2023-03-01T16:53:10.418Z,33.30
2023-03-01T16:55:38.994Z,33.40
2023-03-01T16:58:08.296Z,33.20
2023-03-01T17:00:35.502Z,33.10
2023-03-01T17:03:02.660Z,32.90
2023-03-01T17:05:29.763Z,32.70
2023-03-01T17:07:58.261Z,32.40
2023-03-01T17:10:25.319Z,32.20
2023-03-01T17:12:52.420Z,31.90
2023-03-01T17:15:19.998Z,31.70
2023-03-01T17:17:51.889Z,31.70
2023-03-01T17:20:19.910Z,31.70
2023-03-01T17:22:47.156Z,31.20
2023-03-01T17:25:14.377Z,31.20
2023-03-01T17:27:41.879Z,31.10
2023-03-01T17:30:11.190Z,31.20
2023-03-01T17:32:38.985Z,30.90
2023-03-01T17:35:08.182Z,30.60
2023-03-01T17:37:37.263Z,30.10
2023-03-01T17:40:07.909Z,30.40
2023-03-01T17:42:34.960Z,30.50
2023-03-01T17:45:02.048Z,30.50
2023-03-01T17:47:29.260Z,30.20
2023-03-01T17:49:56.327Z,29.80
2023-03-01T17:52:24.110Z,30.10
2023-03-01T17:54:51.434Z,30.00
2023-03-01T17:57:18.589Z,30.10
2023-03-01T17:59:45.682Z,29.70
2023-03-01T18:02:13.699Z,30.10
2023-03-01T18:04:41.140Z,30.50
2023-03-01T18:07:08.643Z,30.60
2023-03-01T18:09:35.715Z,30.80
2023-03-01T18:12:02.999Z,31.10
2023-03-01T18:14:33.971Z,31.00
2023-03-01T18:17:04.223Z,31.30
2023-03-01T18:19:31.292Z,31.20
2023-03-01T18:21:58.392Z,31.00
2023-03-01T18:24:26.056Z,31.10
2023-03-01T18:26:53.244Z,31.70
2023-03-01T18:29:20.343Z,31.70
2023-03-01T18:31:47.717Z,31.50
2023-03-01T18:34:15.087Z,31.50
2023-03-01T18:36:47.939Z,31.60
2023-03-01T18:39:24.174Z,31.60
2023-03-01T18:41:51.433Z,31.70
2023-03-01T18:44:18.711Z,32.00
2023-03-01T18:46:49.002Z,32.10
2023-03-01T18:49:16.772Z,31.80
2023-03-01T18:51:44.197Z,31.80
2023-03-01T18:54:14.086Z,31.70
2023-03-01T18:56:41.092Z,31.80
2023-03-01T18:59:08.182Z,31.90
2023-03-01T19:01:37.571Z,32.10
2023-03-01T19:04:05.494Z,32.30
2023-03-01T19:06:35.347Z,32.20
2023-03-01T19:09:03.419Z,32.40
2023-03-01T19:11:33.831Z,32.40
2023-03-01T19:14:01.932Z,32.40
2023-03-01T19:16:31.567Z,32.50
2023-03-01T19:19:00.886Z,32.60
2023-03-01T19:21:31.436Z,32.60
2023-03-01T19:23:59.439Z,32.70
2023-03-01T19:26:28.130Z,32.80
2023-03-01T19:28:56.154Z,32.80
2023-03-01T19:31:28.819Z,32.70
2023-03-01T19:34:09.870Z,32.70
2023-03-01T19:36:42.867Z,32.60
2023-03-01T19:39:13.834Z,32.70
2023-03-01T19:41:43.143Z,32.70
2023-03-01T19:44:12.656Z,32.60
2023-03-01T19:46:40.436Z,32.60
2023-03-01T19:49:07.863Z,32.70
2023-03-01T19:51:37.281Z,32.50
2023-03-01T19:54:06.085Z,32.00
2023-03-01T19:56:34.584Z,31.50
2023-03-01T19:59:04.416Z,31.80
2023-03-01T20:01:34.629Z,32.10
2023-03-01T20:04:02.799Z,32.30
2023-03-01T20:06:30.437Z,32.50
2023-03-01T20:08:58.740Z,32.60
2023-03-01T20:11:27.026Z,32.60
2023-03-01T20:13:54.289Z,32.60
2023-03-01T20:16:23.113Z,32.60
2023-03-01T20:18:50.577Z,32.50
2023-03-01T20:21:24.459Z,32.50
2023-03-01T20:23:52.905Z,32.40
2023-03-01T20:26:21.078Z,32.40
2023-03-01T20:28:50.250Z,32.50
2023-03-01T20:31:19.392Z,32.40
2023-03-01T20:33:46.869Z,32.20
2023-03-01T20:36:14.605Z,32.20
2023-03-01T20:38:42.145Z,32.40
2023-03-01T20:41:12.837Z,32.40
2023-03-01T20:43:42.520Z,32.40
2023-03-01T20:46:11.648Z,32.20
2023-03-01T20:48:40.451Z,32.10
2023-03-01T20:51:09.106Z,32.00
2023-03-01T20:53:38.715Z,32.20
2023-03-01T20:56:10.123Z,32.30
2023-03-01T20:58:38.025Z,32.20
2023-03-01T21:01:07.133Z,32.30
2023-03-01T21:03:35.288Z,32.30
2023-03-01T21:06:06.357Z,32.20
2023-03-01T21:08:34.813Z,32.10
2023-03-01T21:11:03.496Z,32.00
2023-03-01T21:13:32.375Z,32.20
2023-03-01T21:16:03.401Z,32.40
2023-03-01T21:18:31.727Z,32.40
2023-03-01T21:21:10.287Z,32.40
2023-03-01T21:23:39.247Z,32.50
2023-03-01T21:26:21.546Z,32.70
2023-03-01T21:28:50.502Z,32.70
2023-03-01T21:31:20.217Z,32.70
2023-03-01T21:33:53.251Z,32.50
2023-03-01T21:36:21.762Z,32.70
2023-03-01T21:38:50.160Z,32.50
2023-03-01T21:41:29.637Z,32.20
2023-03-01T21:44:00.655Z,32.20
2023-03-01T21:46:31.129Z,32.20
2023-03-01T21:48:59.210Z,32.20
2023-03-01T21:51:27.924Z,32.20
2023-03-01T21:53:56.965Z,32.50
2023-03-01T21:56:26.705Z,32.40
2023-03-01T21:58:54.442Z,32.40
2023-03-01T22:01:29.601Z,32.10
2023-03-01T22:03:58.553Z,32.00
2023-03-01T22:06:46.037Z,31.80
2023-03-01T22:09:19.460Z,32.10
2023-03-01T22:11:49.641Z,32.50
2023-03-01T22:14:18.967Z,32.60
2023-03-01T22:16:48.897Z,32.60
2023-03-01T22:19:17.646Z,32.60
2023-03-01T22:21:47.326Z,32.70
2023-03-01T22:24:15.143Z,32.80
2023-03-01T22:26:44.499Z,32.90
2023-03-01T22:29:14.549Z,32.90
2023-03-01T22:31:42.361Z,32.90
2023-03-01T22:34:10.193Z,32.90
2023-03-01T22:36:41.914Z,32.90
2023-03-01T22:39:09.519Z,33.00
2023-03-01T22:41:44.388Z,32.90
2023-03-01T22:44:12.839Z,32.70
2023-03-01T22:46:40.646Z,32.40
2023-03-01T22:49:08.270Z,32.40
2023-03-01T22:51:37.692Z,32.20
2023-03-01T22:54:05.261Z,32.20
2023-03-01T22:56:35.163Z,32.20
2023-03-01T22:59:05.530Z,32.10
2023-03-01T23:01:32.576Z,32.30
2023-03-01T23:03:59.825Z,32.20
2023-03-01T23:06:30.926Z,32.30
2023-03-01T23:09:01.036Z,32.20
2023-03-01T23:11:29.502Z,32.30
2023-03-01T23:13:59.135Z,32.40
2023-03-01T23:16:26.654Z,32.30
2023-03-01T23:18:55.988Z,32.40
2023-03-01T23:21:23.404Z,32.50
2023-03-01T23:23:51.123Z,32.70
2023-03-01T23:26:22.321Z,32.70
2023-03-01T23:28:50.997Z,32.80
2023-03-01T23:31:18.838Z,32.90
2023-03-01T23:33:47.265Z,32.80
2023-03-01T23:36:24.655Z,32.70
2023-03-01T23:38:55.688Z,32.80
2023-03-01T23:41:23.413Z,32.80
2023-03-01T23:43:52.989Z,32.80
2023-03-01T23:46:22.575Z,32.50
2023-03-01T23:48:49.643Z,32.50
2023-03-01T23:51:18.052Z,32.40
2023-03-01T23:53:57.549Z,32.60
2023-03-01T23:56:28.333Z,32.50
2023-03-01T23:58:57.590Z,32.50
